createdAt,value
2018-09-20T00:01:14.694Z,99.90
2018-09-20T00:03:43.888Z,99.90
2018-09-20T00:06:13.001Z,99.90
2018-09-20T00:08:42.196Z,99.90
2018-09-20T00:11:11.366Z,99.90
2018-09-20T00:13:40.559Z,99.90
2018-09-20T00:16:09.701Z,99.90
2018-09-20T00:18:39.040Z,99.90
2018-09-20T00:21:08.225Z,99.90
2018-09-20T00:23:37.540Z,99.90
2018-09-20T00:26:06.965Z,99.90
2018-09-20T00:28:36.162Z,99.90
2018-09-20T00:31:05.426Z,99.90
2018-09-20T00:33:34.594Z,99.90
2018-09-20T00:36:03.771Z,99.90
2018-09-20T00:38:32.929Z,99.90
2018-09-20T00:41:02.126Z,99.90
2018-09-20T00:43:31.281Z,99.90
2018-09-20T00:46:00.433Z,99.90
2018-09-20T00:48:29.610Z,99.90
2018-09-20T00:50:58.779Z,99.90
2018-09-20T00:53:27.922Z,99.90
2018-09-20T00:55:57.089Z,99.90
2018-09-20T00:58:26.190Z,99.90
2018-09-20T01:00:55.369Z,99.90
2018-09-20T01:03:24.537Z,99.90
2018-09-20T01:05:53.686Z,99.90
2018-09-20T01:08:22.824Z,99.90
2018-09-20T01:10:52.027Z,99.90
2018-09-20T01:13:21.154Z,99.90
2018-09-20T01:15:50.790Z,99.90
2018-09-20T01:18:19.937Z,99.90
2018-09-20T01:20:49.104Z,99.90
2018-09-20T01:23:18.246Z,99.90
2018-09-20T01:25:47.430Z,99.90
2018-09-20T01:28:16.569Z,99.90
2018-09-20T01:30:45.715Z,99.90
2018-09-20T01:33:14.877Z,99.90
2018-09-20T01:35:44.042Z,99.90
2018-09-20T01:38:13.231Z,99.90
2018-09-20T01:40:42.527Z,99.90
2018-09-20T01:43:11.717Z,99.90
2018-09-20T01:45:40.854Z,99.90
2018-09-20T01:48:09.972Z,99.90
2018-09-20T01:50:39.139Z,99.90
2018-09-20T01:53:08.330Z,99.90
2018-09-20T01:55:38.059Z,99.90
2018-09-20T01:58:07.218Z,99.90
2018-09-20T02:00:36.435Z,99.90
2018-09-20T02:03:05.654Z,99.90
2018-09-20T02:05:34.739Z,99.90
2018-09-20T02:08:03.895Z,99.90
2018-09-20T02:10:33.022Z,99.90
2018-09-20T02:13:02.259Z,99.90
2018-09-20T02:15:31.514Z,99.90
2018-09-20T02:18:00.715Z,99.90
2018-09-20T02:20:29.922Z,99.90
2018-09-20T02:22:59.125Z,99.90
2018-09-20T02:25:28.274Z,99.90
2018-09-20T02:27:57.425Z,99.90
2018-09-20T02:30:26.596Z,99.90
2018-09-20T02:32:55.779Z,99.90
2018-09-20T02:35:24.896Z,99.90
2018-09-20T02:37:54.051Z,99.90
2018-09-20T02:40:23.318Z,99.90
2018-09-20T02:42:52.382Z,99.90
2018-09-20T02:45:21.526Z,99.90
2018-09-20T02:47:50.643Z,99.90
2018-09-20T02:50:19.806Z,99.90
2018-09-20T02:52:49.109Z,99.90
2018-09-20T02:55:18.540Z,99.90
2018-09-20T02:57:47.816Z,99.90
2018-09-20T03:00:16.982Z,99.90
2018-09-20T03:02:46.131Z,99.90
2018-09-20T03:05:15.302Z,99.90
2018-09-20T03:07:44.474Z,99.90
2018-09-20T03:10:13.626Z,99.90
2018-09-20T03:12:42.784Z,99.90
2018-09-20T03:15:11.925Z,99.90
2018-09-20T03:17:41.054Z,99.90
2018-09-20T03:20:10.190Z,99.90
2018-09-20T03:22:39.346Z,99.90
2018-09-20T03:25:08.483Z,99.90
2018-09-20T03:27:37.618Z,99.90
2018-09-20T03:30:06.757Z,99.90
2018-09-20T03:32:35.916Z,99.90
2018-09-20T03:35:05.109Z,99.90
2018-09-20T03:37:34.234Z,99.90
2018-09-20T03:40:03.433Z,99.90
2018-09-20T03:42:32.589Z,99.90
2018-09-20T03:45:01.758Z,99.90
2018-09-20T03:47:30.889Z,99.90
2018-09-20T03:50:00.034Z,99.90
2018-09-20T03:52:29.195Z,99.90
2018-09-20T03:54:58.346Z,99.90
2018-09-20T03:57:27.568Z,99.90
2018-09-20T03:59:56.692Z,99.90
2018-09-20T04:02:25.832Z,99.90
2018-09-20T04:04:55.013Z,99.90
2018-09-20T04:07:24.137Z,99.90
2018-09-20T04:09:54.033Z,99.90
2018-09-20T04:12:23.188Z,99.90
2018-09-20T04:14:52.352Z,99.90
2018-09-20T04:17:21.550Z,99.90
2018-09-20T04:19:50.798Z,99.90
2018-09-20T04:22:19.946Z,99.90
2018-09-20T04:24:49.199Z,99.90
2018-09-20T04:27:18.365Z,99.90
2018-09-20T04:29:47.528Z,99.90
2018-09-20T04:32:16.678Z,99.90
2018-09-20T04:34:45.828Z,99.90
2018-09-20T04:37:14.978Z,99.90
2018-09-20T04:39:44.130Z,99.90
2018-09-20T04:42:13.294Z,99.90
2018-09-20T04:44:42.435Z,99.90
2018-09-20T04:47:11.613Z,99.90
2018-09-20T04:49:40.743Z,99.90
2018-09-20T04:52:10.661Z,99.90
2018-09-20T04:54:39.806Z,99.90
2018-09-20T04:57:08.954Z,99.90
2018-09-20T04:59:38.734Z,99.90
2018-09-20T05:02:07.952Z,99.90
2018-09-20T05:04:37.188Z,99.90
2018-09-20T05:07:06.369Z,99.90
2018-09-20T05:09:35.618Z,99.90
2018-09-20T05:12:04.725Z,99.90
2018-09-20T05:14:33.911Z,99.90
2018-09-20T05:17:03.083Z,99.90
2018-09-20T05:19:32.238Z,99.90
2018-09-20T05:22:01.383Z,99.90
2018-09-20T05:24:30.516Z,99.90
2018-09-20T05:26:59.821Z,99.90
2018-09-20T05:29:28.967Z,99.90
2018-09-20T05:31:58.138Z,99.90
2018-09-20T05:34:27.286Z,99.90
2018-09-20T05:36:56.455Z,99.90
2018-09-20T05:39:25.603Z,99.90
2018-09-20T05:41:54.754Z,99.90
2018-09-20T05:44:23.958Z,99.90
2018-09-20T05:46:53.210Z,99.90
2018-09-20T05:49:22.372Z,99.90
2018-09-20T05:51:51.612Z,99.90
2018-09-20T05:54:20.738Z,99.90
2018-09-20T05:56:49.952Z,99.90
2018-09-20T05:59:19.099Z,99.90
2018-09-20T06:01:48.351Z,99.90
2018-09-20T06:04:17.507Z,99.90
2018-09-20T06:06:46.695Z,99.90
2018-09-20T06:09:16.037Z,99.90
2018-09-20T06:11:46.014Z,99.90
2018-09-20T06:14:15.175Z,99.90
2018-09-20T06:16:44.459Z,99.90
2018-09-20T06:19:13.692Z,99.90
2018-09-20T06:21:42.860Z,99.90
2018-09-20T06:24:11.993Z,99.90
2018-09-20T06:26:41.213Z,99.90
2018-09-20T06:29:10.374Z,99.90
2018-09-20T06:31:39.515Z,99.90
2018-09-20T06:34:08.605Z,99.90
2018-09-20T06:36:37.759Z,99.90
2018-09-20T06:39:08.686Z,99.90
2018-09-20T06:41:38.039Z,99.90
2018-09-20T06:44:07.186Z,99.90
2018-09-20T06:46:36.335Z,99.90
2018-09-20T06:49:05.541Z,99.90
2018-09-20T06:51:34.832Z,99.90
2018-09-20T06:54:03.969Z,99.90
2018-09-20T06:56:33.219Z,99.90
2018-09-20T06:59:02.345Z,99.90
2018-09-20T07:01:31.668Z,99.90
2018-09-20T07:04:00.918Z,99.90
2018-09-20T07:06:30.091Z,99.90
2018-09-20T07:08:59.202Z,99.90
2018-09-20T07:11:28.405Z,99.90
2018-09-20T07:13:57.525Z,99.90
2018-09-20T07:16:27.074Z,99.90
2018-09-20T07:18:56.280Z,99.90
2018-09-20T07:21:25.456Z,99.90
2018-09-20T07:23:54.730Z,99.90
2018-09-20T07:26:23.865Z,99.90
2018-09-20T07:28:53.026Z,99.90
2018-09-20T07:31:22.230Z,99.90
2018-09-20T07:33:51.428Z,99.90
2018-09-20T07:36:20.583Z,99.90
2018-09-20T07:38:49.708Z,99.90
2018-09-20T07:41:18.865Z,99.90
2018-09-20T07:43:48.006Z,99.90
2018-09-20T07:46:17.177Z,99.90
2018-09-20T07:48:46.350Z,99.90
2018-09-20T07:51:15.589Z,99.90
2018-09-20T07:53:44.869Z,99.90
2018-09-20T07:56:14.056Z,99.90
2018-09-20T07:58:43.168Z,99.90
2018-09-20T08:01:12.354Z,99.90
2018-09-20T08:03:41.492Z,99.90
2018-09-20T08:06:10.633Z,99.90
2018-09-20T08:08:39.817Z,99.90
2018-09-20T08:11:08.964Z,99.90
2018-09-20T08:13:38.261Z,99.90
2018-09-20T08:16:07.443Z,99.90
2018-09-20T08:18:36.637Z,99.90
2018-09-20T08:21:05.995Z,99.90
2018-09-20T08:23:35.175Z,99.90
2018-09-20T08:26:04.381Z,99.90
2018-09-20T08:28:33.530Z,99.90
2018-09-20T08:31:02.658Z,99.90
2018-09-20T08:33:31.857Z,99.90
2018-09-20T08:36:00.981Z,99.90
2018-09-20T08:38:32.899Z,99.90
2018-09-20T08:41:02.050Z,99.90
2018-09-20T08:43:31.268Z,99.90
2018-09-20T08:46:00.453Z,99.90
2018-09-20T08:48:29.642Z,99.90
2018-09-20T08:50:58.819Z,99.90
2018-09-20T08:53:28.546Z,99.90
2018-09-20T08:55:57.732Z,99.90
2018-09-20T08:58:26.872Z,99.90
2018-09-20T09:00:56.094Z,99.90
2018-09-20T09:03:25.236Z,99.90
2018-09-20T09:05:54.555Z,99.90
2018-09-20T09:08:23.659Z,99.90
2018-09-20T09:10:52.818Z,99.90
2018-09-20T09:13:21.929Z,99.90
2018-09-20T09:15:51.117Z,99.90
2018-09-20T09:18:20.386Z,99.90
2018-09-20T09:20:49.492Z,99.90
2018-09-20T09:23:18.636Z,99.90
2018-09-20T09:25:47.738Z,99.90
2018-09-20T09:28:16.854Z,99.90
2018-09-20T09:30:46.008Z,99.90
2018-09-20T09:33:15.157Z,99.90
2018-09-20T09:35:44.333Z,99.90
2018-09-20T09:38:13.599Z,99.90
2018-09-20T09:40:42.744Z,99.90
2018-09-20T09:43:11.881Z,99.60
2018-09-20T09:45:40.979Z,99.50
2018-09-20T09:48:10.146Z,99.60
2018-09-20T09:50:39.271Z,99.50
2018-09-20T09:53:08.408Z,99.40
2018-09-20T09:55:37.523Z,99.20
2018-09-20T09:58:06.690Z,99.00
2018-09-20T10:00:37.953Z,98.70
2018-09-20T10:03:07.112Z,98.50
2018-09-20T10:05:36.244Z,98.70
2018-09-20T10:08:05.522Z,98.80
2018-09-20T10:10:34.712Z,98.80
2018-09-20T10:13:03.811Z,98.80
2018-09-20T10:15:32.963Z,98.70
2018-09-20T10:18:02.114Z,98.50
2018-09-20T10:20:31.242Z,98.40
2018-09-20T10:23:01.076Z,98.30
2018-09-20T10:25:30.194Z,98.30
2018-09-20T10:27:59.373Z,98.20
2018-09-20T10:30:28.433Z,98.40
2018-09-20T10:32:57.573Z,98.30
2018-09-20T10:35:28.185Z,98.10
2018-09-20T10:37:57.308Z,98.00
2018-09-20T10:40:26.460Z,98.00
2018-09-20T10:42:55.573Z,97.80
2018-09-20T10:45:24.712Z,97.80
2018-09-20T10:47:53.804Z,97.80
2018-09-20T10:50:23.154Z,97.80
2018-09-20T10:52:53.162Z,97.80
2018-09-20T10:55:22.371Z,97.80
2018-09-20T10:57:51.519Z,97.70
2018-09-20T11:00:20.687Z,97.60
2018-09-20T11:02:49.956Z,97.60
2018-09-20T11:05:19.322Z,97.40
2018-09-20T11:07:48.419Z,97.10
2018-09-20T11:10:17.714Z,96.90
2018-09-20T11:12:46.838Z,96.70
2018-09-20T11:15:16.018Z,96.80
2018-09-20T11:17:45.178Z,96.90
2018-09-20T11:20:14.343Z,96.90
2018-09-20T11:22:43.745Z,96.70
2018-09-20T11:25:12.908Z,96.60
2018-09-20T11:27:42.169Z,96.50
2018-09-20T11:30:11.466Z,96.60
2018-09-20T11:32:40.631Z,96.90
2018-09-20T11:35:09.814Z,97.00
2018-09-20T11:37:39.111Z,97.00
2018-09-20T11:40:08.464Z,96.80
2018-09-20T11:42:37.635Z,96.50
2018-09-20T11:45:06.878Z,96.10
2018-09-20T11:47:36.068Z,96.20
2018-09-20T11:50:06.216Z,96.20
2018-09-20T11:52:35.505Z,96.00
2018-09-20T11:55:04.749Z,95.70
2018-09-20T11:57:33.917Z,95.40
2018-09-20T12:00:03.135Z,95.40
2018-09-20T12:02:32.395Z,95.70
2018-09-20T12:05:01.695Z,95.50
2018-09-20T12:07:30.962Z,95.50
2018-09-20T12:10:00.237Z,95.40
2018-09-20T12:12:29.394Z,95.40
2018-09-20T12:14:58.591Z,95.20
2018-09-20T12:17:27.714Z,95.10
2018-09-20T12:19:57.092Z,94.90
2018-09-20T12:22:26.220Z,95.00
2018-09-20T12:24:55.358Z,95.00
2018-09-20T12:27:24.578Z,94.60
2018-09-20T12:29:53.754Z,94.50
2018-09-20T12:32:23.257Z,94.20
2018-09-20T12:34:52.553Z,94.40
2018-09-20T12:37:26.057Z,94.70
2018-09-20T12:39:55.218Z,94.90
2018-09-20T12:42:24.417Z,94.70
2018-09-20T12:44:53.732Z,94.30
2018-09-20T12:47:22.989Z,94.20
2018-09-20T12:49:52.232Z,93.80
2018-09-20T12:52:21.402Z,93.30
2018-09-20T12:54:50.652Z,93.30
2018-09-20T12:57:19.836Z,93.00
2018-09-20T12:59:48.992Z,92.80
2018-09-20T13:02:18.391Z,92.80
2018-09-20T13:04:47.574Z,92.70
2018-09-20T13:07:16.743Z,92.70
2018-09-20T13:09:46.276Z,92.40
2018-09-20T13:12:15.536Z,92.40
2018-09-20T13:14:45.134Z,92.00
2018-09-20T13:17:14.356Z,91.60
2018-09-20T13:19:43.545Z,91.30
2018-09-20T13:22:12.752Z,91.30
2018-09-20T13:24:41.932Z,91.30
2018-09-20T13:27:11.111Z,91.20
2018-09-20T13:29:40.291Z,91.00
2018-09-20T13:32:09.499Z,90.90
2018-09-20T13:34:38.667Z,90.70
2018-09-20T13:37:07.950Z,90.50
2018-09-20T13:39:37.163Z,90.10
2018-09-20T13:42:06.359Z,90.30
2018-09-20T13:44:35.545Z,90.90
2018-09-20T13:47:05.125Z,91.50
2018-09-20T13:49:34.406Z,91.80
2018-09-20T13:52:03.711Z,91.50
2018-09-20T13:54:33.416Z,91.30
2018-09-20T13:57:02.635Z,91.30
2018-09-20T13:59:31.815Z,91.20
2018-09-20T14:02:00.963Z,91.00
2018-09-20T14:04:30.147Z,90.90
2018-09-20T14:06:59.356Z,90.90
2018-09-20T14:09:28.555Z,90.90
2018-09-20T14:11:57.718Z,90.20
2018-09-20T14:14:26.901Z,89.70
2018-09-20T14:16:57.176Z,90.40
2018-09-20T14:19:26.364Z,90.40
2018-09-20T14:21:55.546Z,89.60
2018-09-20T14:24:24.850Z,89.10
2018-09-20T14:26:54.119Z,89.60
2018-09-20T14:29:23.395Z,88.60
2018-09-20T14:31:52.602Z,89.60
2018-09-20T14:34:21.836Z,88.70
2018-09-20T14:36:51.302Z,88.60
2018-09-20T14:39:20.597Z,87.70
2018-09-20T14:41:50.083Z,87.60
2018-09-20T14:44:25.806Z,88.00
2018-09-20T14:46:55.729Z,87.40
2018-09-20T14:49:24.915Z,87.20
2018-09-20T14:51:54.088Z,88.00
2018-09-20T14:54:23.374Z,87.90
2018-09-20T14:56:52.588Z,86.60
2018-09-20T14:59:21.738Z,87.40
2018-09-20T15:01:50.960Z,87.20
2018-09-20T15:04:20.157Z,87.70
2018-09-20T15:06:49.410Z,88.20
2018-09-20T15:09:18.627Z,87.20
2018-09-20T15:11:48.035Z,87.30
2018-09-20T15:14:17.235Z,88.10
2018-09-20T15:16:46.432Z,88.20
2018-09-20T15:19:15.626Z,89.10
2018-09-20T15:21:44.831Z,88.70
2018-09-20T15:24:14.011Z,89.50
2018-09-20T15:26:43.202Z,88.80
2018-09-20T15:29:12.360Z,89.10
2018-09-20T15:31:41.531Z,88.70
2018-09-20T15:34:10.737Z,89.50
2018-09-20T15:36:40.003Z,88.90
2018-09-20T15:39:11.139Z,89.30
2018-09-20T15:41:40.689Z,89.70
2018-09-20T15:44:10.870Z,89.40
2018-09-20T15:47:05.502Z,89.80
2018-09-20T15:49:34.819Z,89.90
2018-09-20T15:52:04.025Z,89.30
2018-09-20T15:54:33.198Z,89.40
2018-09-20T15:57:02.374Z,89.50
2018-09-20T15:59:31.514Z,89.80
2018-09-20T16:02:00.747Z,90.10
2018-09-20T16:04:29.882Z,90.00
2018-09-20T16:06:59.045Z,90.30
2018-09-20T16:09:28.261Z,90.40
2018-09-20T16:11:57.405Z,90.70
2018-09-20T16:14:26.584Z,90.90
2018-09-20T16:16:55.752Z,90.90
2018-09-20T16:19:24.886Z,91.00
2018-09-20T16:21:54.063Z,91.00
2018-09-20T16:24:23.247Z,91.30
2018-09-20T16:26:52.383Z,91.80
2018-09-20T16:29:30.921Z,91.50
2018-09-20T16:32:15.107Z,91.10
2018-09-20T16:36:28.423Z,90.90
2018-09-20T16:39:01.551Z,91.10
2018-09-20T16:41:38.583Z,91.40
2018-09-20T16:44:08.745Z,91.50
2018-09-20T16:46:37.979Z,91.90
2018-09-20T16:49:07.143Z,92.00
2018-09-20T16:51:36.300Z,92.20
2018-09-20T16:54:05.507Z,92.20
2018-09-20T16:56:34.689Z,92.00
2018-09-20T16:59:03.941Z,92.00
2018-09-20T17:01:33.260Z,92.30
2018-09-20T17:04:02.441Z,92.10
2018-09-20T17:06:31.620Z,92.20
2018-09-20T17:09:00.765Z,92.30
2018-09-20T17:11:29.929Z,92.00
2018-09-20T17:13:59.083Z,92.20
2018-09-20T17:16:28.271Z,92.10
2018-09-20T17:18:58.281Z,92.00
2018-09-20T17:21:28.237Z,91.90
2018-09-20T17:23:58.338Z,92.10
2018-09-20T17:26:27.652Z,92.10
2018-09-20T17:28:56.808Z,92.40
2018-09-20T17:31:26.018Z,92.20
2018-09-20T17:33:55.167Z,92.20
2018-09-20T17:36:24.570Z,92.40
2018-09-20T17:38:54.469Z,92.50
2018-09-20T17:41:26.563Z,92.30
2018-09-20T17:44:05.138Z,92.40
2018-09-20T17:46:34.274Z,92.40
2018-09-20T17:49:03.577Z,92.50
2018-09-20T17:51:33.170Z,92.50
2018-09-20T17:54:02.583Z,92.90
2018-09-20T17:56:32.085Z,93.00
2018-09-20T17:59:01.636Z,93.10
2018-09-20T18:01:30.831Z,93.10
2018-09-20T18:04:00.047Z,93.50
2018-09-20T18:06:29.215Z,93.70
2018-09-20T18:08:58.418Z,93.90
2018-09-20T18:11:27.609Z,93.90
2018-09-20T18:13:56.765Z,93.90
2018-09-20T18:16:25.948Z,94.00
2018-09-20T18:18:55.111Z,94.20
2018-09-20T18:21:24.283Z,94.20
2018-09-20T18:23:53.429Z,94.40
2018-09-20T18:26:22.772Z,94.60
2018-09-20T18:28:52.030Z,94.60
2018-09-20T18:31:21.239Z,94.80
2018-09-20T18:33:50.411Z,94.90
2018-09-20T18:36:20.432Z,95.10
2018-09-20T18:38:49.600Z,95.20
2018-09-20T18:41:18.777Z,95.10
2018-09-20T18:43:47.990Z,95.30
2018-09-20T18:46:17.174Z,95.30
2018-09-20T18:48:46.391Z,95.70
2018-09-20T18:51:16.514Z,95.40
2018-09-20T18:53:45.654Z,95.60
2018-09-20T18:56:14.814Z,96.10
2018-09-20T18:58:43.987Z,95.80
2018-09-20T19:01:13.352Z,95.90
2018-09-20T19:03:42.697Z,96.00
2018-09-20T19:06:12.017Z,96.10
2018-09-20T19:08:41.251Z,96.10
2018-09-20T19:11:10.415Z,96.30
2018-09-20T19:13:39.667Z,96.40
2018-09-20T19:16:09.008Z,96.60
2018-09-20T19:18:38.310Z,96.70
2018-09-20T19:21:07.701Z,96.70
2018-09-20T19:23:37.003Z,96.60
2018-09-20T19:26:06.296Z,96.60
2018-09-20T19:28:35.474Z,96.70
2018-09-20T19:31:04.739Z,96.70
2018-09-20T19:33:33.988Z,96.60
2018-09-20T19:36:03.401Z,96.70
2018-09-20T19:38:32.756Z,96.70
2018-09-20T19:41:02.183Z,96.80
2018-09-20T19:43:31.493Z,97.00
2018-09-20T19:46:00.853Z,97.00
2018-09-20T19:48:30.202Z,96.90
2018-09-20T19:50:59.429Z,97.00
2018-09-20T19:53:28.724Z,97.00
2018-09-20T19:55:57.846Z,97.20
2018-09-20T19:58:27.102Z,97.20
2018-09-20T20:00:57.224Z,97.40
2018-09-20T20:03:26.486Z,97.30
2018-09-20T20:05:55.683Z,97.40
2018-09-20T20:08:25.011Z,97.30
2018-09-20T20:10:54.171Z,97.40
2018-09-20T20:13:23.433Z,97.40
2018-09-20T20:15:52.618Z,97.60
2018-09-20T20:18:23.034Z,97.70
2018-09-20T20:20:52.186Z,97.90
2018-09-20T20:23:21.347Z,98.00
2018-09-20T20:25:50.482Z,98.00
2018-09-20T20:28:19.676Z,98.00
2018-09-20T20:30:48.901Z,97.90
2018-09-20T20:33:18.095Z,97.80
2018-09-20T20:35:47.316Z,97.80
2018-09-20T20:38:16.556Z,97.80
2018-09-20T20:40:45.765Z,97.90
2018-09-20T20:43:14.953Z,98.00
2018-09-20T20:45:44.139Z,98.00
2018-09-20T20:48:13.373Z,98.00
2018-09-20T20:50:42.701Z,98.10
2018-09-20T20:53:12.063Z,98.00
2018-09-20T20:55:41.198Z,98.00
2018-09-20T20:58:10.370Z,98.10
2018-09-20T21:00:39.589Z,98.00
2018-09-20T21:03:08.961Z,97.90
2018-09-20T21:05:38.281Z,97.90
2018-09-20T21:08:07.571Z,98.00
2018-09-20T21:10:36.750Z,97.70
2018-09-20T21:13:05.949Z,97.90
2018-09-20T21:15:35.233Z,98.00
2018-09-20T21:18:04.410Z,98.10
2018-09-20T21:20:33.646Z,98.00
2018-09-20T21:23:02.837Z,97.90
2018-09-20T21:25:32.063Z,98.00
2018-09-20T21:28:01.248Z,98.00
2018-09-20T21:30:30.440Z,97.90
2018-09-20T21:32:59.588Z,98.00
2018-09-20T21:35:28.844Z,98.00
2018-09-20T21:37:58.014Z,98.10
2018-09-20T21:40:27.239Z,98.10
2018-09-20T21:42:56.431Z,98.10
2018-09-20T21:45:25.635Z,98.20
2018-09-20T21:47:54.886Z,98.20
2018-09-20T21:50:24.040Z,98.20
2018-09-20T21:52:53.255Z,98.40
2018-09-20T21:55:22.452Z,98.40
2018-09-20T21:57:51.655Z,98.50
2018-09-20T22:00:20.917Z,98.50
2018-09-20T22:02:55.387Z,98.30
2018-09-20T22:05:24.582Z,98.60
2018-09-20T22:07:53.796Z,98.50
2018-09-20T22:10:23.050Z,98.50
2018-09-20T22:12:52.204Z,98.50
2018-09-20T22:15:25.399Z,98.70
2018-09-20T22:17:55.259Z,98.70
2018-09-20T22:20:26.163Z,98.70
2018-09-20T22:22:55.336Z,98.60
2018-09-20T22:25:24.552Z,98.60
2018-09-20T22:27:53.690Z,98.60
2018-09-20T22:30:22.867Z,98.60
2018-09-20T22:32:52.054Z,98.70
2018-09-20T22:35:21.282Z,98.80
2018-09-20T22:37:50.444Z,98.80
2018-09-20T22:40:19.642Z,98.90
2018-09-20T22:42:48.824Z,99.00
2018-09-20T22:45:18.178Z,99.10
2018-09-20T22:47:47.351Z,99.40
2018-09-20T22:50:16.549Z,99.50
2018-09-20T22:52:45.738Z,99.30
2018-09-20T22:55:14.926Z,99.60
2018-09-20T22:57:44.247Z,99.80
2018-09-20T23:00:13.482Z,99.90
2018-09-20T23:02:42.741Z,99.90
2018-09-20T23:05:11.927Z,99.90
2018-09-20T23:07:41.058Z,99.60
2018-09-20T23:10:10.225Z,99.90
2018-09-20T23:12:39.421Z,99.90
2018-09-20T23:15:08.570Z,99.90
2018-09-20T23:17:37.708Z,99.90
2018-09-20T23:20:06.975Z,99.90
2018-09-20T23:22:36.067Z,99.90
2018-09-20T23:25:05.315Z,99.90
2018-09-20T23:27:34.486Z,99.90
2018-09-20T23:30:03.718Z,99.90
2018-09-20T23:32:32.850Z,99.90
2018-09-20T23:35:02.007Z,99.90
2018-09-20T23:37:31.167Z,99.90
2018-09-20T23:40:00.343Z,99.90
2018-09-20T23:42:29.489Z,99.90
2018-09-20T23:44:58.664Z,99.90
2018-09-20T23:47:27.781Z,99.90
2018-09-20T23:49:56.918Z,99.90
2018-09-20T23:52:26.139Z,99.90
2018-09-20T23:54:55.334Z,99.90
2018-09-20T23:57:24.568Z,99.90
2018-09-20T23:59:53.722Z,99.90
